ADDS METAR Data INFO
IDs: Format: Raw Decoded Include TAF

Data at: 2054 UTC 24 Jun 2017

KXBP 242035Z AUTO 01008KT 10SM SCT019 BKN029 BKN034 25/20 A3015 RMK AO2 T02500198
KXBP 242015Z AUTO 01006KT 10SM BKN029 BKN034 25/20 A3015 RMK AO2 T02450195
KXBP 241955Z AUTO 04008KT 10SM SCT016 SCT021 OVC028 24/20 A3015 RMK AO2 T02400195
KXBP 241935Z AUTO 04009KT 10SM BKN018 OVC023 24/19 A3015 RMK AO2 T02350193
KXBP 241915Z AUTO 01009KT 10SM BKN016 24/19 A3014 RMK AO2 T02390194
KXBP 241855Z AUTO 36008KT 10SM SCT016 SCT120 24/20 A3014 RMK AO2 T02440197
KXBP 241835Z AUTO 34008KT 10SM SCT016 SCT120 24/19 A3015 RMK AO2 T02420194
KXBP 241815Z AUTO 36005KT 10SM CLR 24/20 A3015 RMK AO2 T02400198
KXBP 241755Z AUTO 06005KT 10SM CLR 23/20 A3014 RMK AO2 60061 T02310200 10231 20195
KXBP 241735Z AUTO 04006KT 10SM CLR 23/20 A3015 RMK AO2 T02260202
KXBP 241715Z AUTO 06003KT 10SM CLR 22/20 A3015 RMK AO2 T02190201
KXBP 241655Z AUTO 33007KT 10SM -DZ SCT034 SCT040 21/21 A3016 RMK AO2 P0001 T02110211
KXBP 241635Z AUTO 14014G19KT 10SM -RA SCT026 BKN034 BKN040 20/20 A3010 RMK AO2 P0001 T02020202
KXBP 241615Z AUTO 14008G15KT 10SM RA SCT032 BKN039 OVC046 20/20 A3014 RMK AO2 LTG DSNT S P0001 T02020202
KXBP 241555Z AUTO 13009G15KT 10SM RA SCT037 BKN045 OVC050 20/20 A3016 RMK AO2 P0007 T02000200
KXBP 241535Z AUTO 14009KT 10SM -RA SCT044 OVC050 20/20 A3018 RMK AO2 LTG DSNT SW P0006 T02010201
KXBP 241515Z AUTO 14007KT 10SM -RA BKN055 OVC065 20/20 A3019 RMK AO2 P0003 T02000200
KXBP 241455Z AUTO 14006KT 10SM RA SCT048 OVC055 20/20 A3019 RMK AO2 P0016 60053 T02010201
KXBP 241435Z AUTO 11005KT 7SM RA BKN048 OVC055 20/20 A3020 RMK AO2 LTG DSNT SW P0012 T02000200
KXBP 241415Z AUTO 12005KT 7SM RA SCT037 BKN045 OVC050 20/20 A3020 RMK AO2 LTG DSNT SW P0005 T02000200
KXBP 241355Z AUTO 10004KT 7SM VCTSRA SCT030 SCT037 BKN043 20/20 A3020 RMK AO2 LTG DSNT ALQS P0018 T02000200
KXBP 241335Z AUTO 05003KT 5SM RA SCT029 SCT035 BKN045 20/20 A3019 RMK AO2 LTG DSNT E THRU SW P0011 T02000200
KXBP 241315Z AUTO 00000KT 4SM RA SCT019 BKN041 BKN047 20/20 A3019 RMK AO2 LTG DSNT E THRU SW P0005 T01970197
KXBP 241255Z AUTO 00000KT 5SM VCTSRA BKN039 BKN046 OVC055 20/20 A3018 RMK AO2 LTG DSNT ALQS P0018 T01960196
KXBP 241235Z AUTO 06006KT 10SM RA SCT032 SCT038 BKN044 20/20 A3015 RMK AO2 LTG DSNT ALQS P0009 T01960196
KXBP 241215Z AUTO 04005KT 10SM TSRA SCT024 BKN047 OVC060 20/20 A3013 RMK AO2 LTG DSNT ALQS P0004 T01960196
KXBP 241155Z AUTO 06010G17KT 10SM -TSRA SCT014 BKN023 OVC032 20/20 A3013 RMK AO2 LTG DSNT ALQS P0083 60264 70264 T01970197 10279 20197
KXBP 241135Z AUTO 06012G17KT 3SM +TSRA SCT009 BKN017 OVC031 20/20 A3011 RMK AO2 LTG DSNT ALQS P0078 T01980198
KXBP 241115Z AUTO 06006KT 2SM +TSRA OVC007 20/20 A3011 RMK AO2 LTG DSNT ALQS P0047 T01980198
KXBP 241055Z AUTO 04013G23KT 2SM +TSRA BKN005 OVC008 21/21 A3009 RMK AO2 LTG DSNT ALQS P0171 T02050205
KXBP 241035Z AUTO 34014G18KT 1SM +TSRA BKN005 OVC013 21/21 A3007 RMK AO2 LTG DSNT ALQS P0090 T02070207
KXBP 241015Z AUTO 34010G25KT 320V020 7SM +TSRA SCT008 BKN011 OVC025 21/20 A3006 RMK AO2 LTG DSNT ALQS P0006 T02100203
KXBP 240955Z AUTO 35008KT 10SM VCTS SCT008 SCT023 BKN090 22/22 A3002 RMK AO2 LTG DSNT ALQS T02220222
KXBP 240935Z AUTO 13004KT 10SM VCTS SCT110 22/22 A2997 RMK AO2 LTG DSNT ALQS T02180218
KXBP 240915Z AUTO 16004KT 10SM SCT110 22/22 A2996 RMK AO2 LTG DSNT ALQS T02170217
KXBP 240855Z AUTO 14004KT 10SM VCTS SCT090 SCT110 22/22 A2996 RMK AO2 LTG DSNT ALQS 60007 T02200220
KXBP 240835Z AUTO 11004KT 10SM VCTS SCT010 SCT038 SCT060 22/22 A2996 RMK AO2 LTG DSNT ALQS T02210221
KXBP 240815Z AUTO 14010G16KT 10SM -VCTSRA SCT023 BKN036 OVC075 23/23 A2998 RMK AO2 LTG DSNT ALQS T02320232
KXBP 240755Z AUTO 15009G17KT 7SM -VCTSRA BKN023 BKN029 OVC035 24/22 A2999 RMK AO2 LTG DSNT ALQS P0007 T02400222
KXBP 240735Z AUTO 11008KT 10SM -VCTSRA BKN023 OVC031 27/21 A2998 RMK AO2 LTG DSNT ALQS T02650210
KXBP 240715Z AUTO 08008G14KT 10SM VCTS SCT025 BKN031 OVC100 27/20 A2998 RMK AO2 LTG DSNT E THRU SW T02680203
KXBP 240655Z AUTO 08009KT 10SM SCT025 OVC039 27/20 A2998 RMK AO2 LTG DSNT SE THRU SW T02710200
KXBP 240635Z AUTO 06006KT 10SM VCTS BKN039 BKN050 27/20 A2996 RMK AO2 LTG DSNT ALQS T02720195
KXBP 240615Z AUTO 06010G17KT 10SM SCT037 SCT070 28/20 A2997 RMK AO2 LTG DSNT E THRU SW T02750198
KXBP 240555Z AUTO 05010G16KT 10SM SCT070 28/20 A2998 RMK AO2 LTG DSNT E THRU S T02800201 10358 20280 403750202
KXBP 240535Z AUTO 06010G18KT 10SM VCTS CLR 29/22 A2996 RMK AO2 LTG DSNT E THRU S T02870220
KXBP 240515Z AUTO 06013G19KT 10SM SCT055 SCT065 30/22 A2996 RMK AO2 LTG DSNT E T02950220
KXBP 240455Z AUTO 06006KT 10SM SCT055 SCT065 30/22 A2995 RMK AO2 LTG DSNT E T02970219
KXBP 240435Z AUTO 07008KT 10SM SCT055 SCT070 SCT080 30/22 A2994 RMK AO2 T02980217
KXBP 240415Z AUTO 06007KT 10SM BKN055 BKN070 BKN080 30/22 A2993 RMK AO2 T02980220
KXBP 240355Z AUTO 05003KT 10SM SCT055 SCT065 29/22 A2993 RMK AO2 T02900215
KXBP 240335Z AUTO 07003KT 10SM CLR 29/21 A2992 RMK AO2 T02920212
KXBP 240315Z AUTO 06004KT 10SM CLR 29/21 A2991 RMK AO2 LTG DSNT SW T02900211
KXBP 240255Z AUTO 00000KT 10SM CLR 29/21 A2990 RMK AO2 T02940210
KXBP 240235Z AUTO 00000KT 10SM CLR 30/21 A2989 RMK AO2 T02970206
KXBP 240215Z AUTO 00000KT 10SM CLR 31/20 A2988 RMK AO2 T03050200
KXBP 240155Z AUTO 00000KT 10SM CLR 31/19 A2987 RMK AO2 T03110192
KXBP 240135Z AUTO 09003KT 10SM CLR 32/19 A2986 RMK AO2 T03200192
KXBP 240115Z AUTO 11003KT 10SM CLR 32/20 A2985 RMK AO2 T03200197
KXBP 240055Z AUTO 09003KT 10SM CLR 33/19 A2985 RMK AO2 T03270190
KXBP 240035Z AUTO 08004KT 10SM CLR 34/19 A2984 RMK AO2 T03360190
KXBP 240015Z AUTO 07004KT 10SM CLR 35/19 A2983 RMK AO2 T03460194
KXBP 232355Z AUTO 08006KT 10SM CLR 36/18 A2982 RMK AO2 T03580183 10375 20349
KXBP 232335Z AUTO 09008KT 10SM CLR 36/18 A2982 RMK AO2 T03630183
KXBP 232315Z AUTO 09007KT 10SM CLR 37/19 A2982 RMK AO2 T03650190
KXBP 232255Z AUTO 09009KT 10SM CLR 37/19 A2981 RMK AO2 T03700192
KXBP 232235Z AUTO 06007KT 10SM CLR 37/19 A2981 RMK AO2 T03710189
KXBP 232215Z AUTO 08007KT 10SM CLR 37/19 A2981 RMK AO2 T03710187
KXBP 232155Z AUTO 09008KT 10SM CLR 38/19 A2982 RMK AO2 T03750190
KXBP 232135Z AUTO 12007KT 10SM CLR 37/19 A2981 RMK AO2 T03730185
KXBP 232115Z AUTO 07005KT 10SM CLR 37/19 A2982 RMK AO2 T03720191
KXBP 232055Z AUTO 09008KT 050V120 10SM CLR 37/19 A2982 RMK AO2 T03730186
KXBP 232035Z AUTO 09007KT 10SM CLR 37/18 A2983 RMK AO2 T03700184
KXBP 232015Z AUTO 07005KT 10SM CLR 37/17 A2983 RMK AO2 T03700172
KXBP 231955Z AUTO 08006KT 10SM CLR 37/19 A2983 RMK AO2 T03650193
KXBP 231935Z AUTO 06003KT 10SM CLR 37/17 A2983 RMK AO2 T03680168
KXBP 231915Z AUTO 07005KT 10SM CLR 36/17 A2984 RMK AO2 T03640170
KXBP 231855Z AUTO 09005KT 10SM CLR 36/19 A2984 RMK AO2 T03590188
KXBP 231835Z AUTO 05007KT 10SM CLR 36/20 A2983 RMK AO2 T03590204
KXBP 231815Z AUTO 09005KT 10SM CLR 35/21 A2984 RMK AO2 T03520212
KXBP 231755Z AUTO 09004KT 10SM CLR 35/21 A2983 RMK AO2 T03480212 10351 20205
KXBP 231735Z AUTO 05004KT 10SM CLR 34/21 A2983 RMK AO2 T03440207
KXBP 231715Z AUTO 09004KT 10SM CLR 34/22 A2982 RMK AO2 LTG DSNT N T03430215
KXBP 231655Z AUTO 00000KT 10SM CLR 34/22 A2982 RMK AO2 T03360215
KXBP 231635Z AUTO 11003KT 10SM CLR 33/21 A2981 RMK AO2 T03300214
KXBP 231615Z AUTO 14004KT 10SM CLR 33/22 A2981 RMK AO2 T03260219
KXBP 231555Z AUTO 00000KT 10SM CLR 32/22 A2981 RMK AO2 T03200216
KXBP 231535Z AUTO 15003KT 10SM CLR 32/22 A2980 RMK AO2 T03180218
KXBP 231515Z AUTO 20006KT 10SM CLR 31/22 A2981 RMK AO2 T03080217
KXBP 231455Z AUTO 19005KT 10SM CLR 30/22 A2981 RMK AO2 LTG DSNT E T02990218
KXBP 231435Z AUTO 20004KT 10SM CLR 29/22 A2981 RMK AO2 T02910224
KXBP 231415Z AUTO 00000KT 10SM CLR 28/23 A2982 RMK AO2 T02760228
KXBP 231355Z AUTO 00000KT 10SM CLR 27/23 A2982 RMK AO2 T02670228
KXBP 231335Z AUTO 00000KT 10SM CLR 26/23 A2980 RMK AO2 T02570231
KXBP 231315Z AUTO 18003KT 10SM CLR 24/24 A2979 RMK AO2 T02430240
KXBP 231255Z AUTO 00000KT 10SM CLR 23/23 A2979 RMK AO2 T02280228
KXBP 231235Z AUTO 00000KT 10SM CLR 22/22 A2978 RMK AO2 T02200220
KXBP 231215Z AUTO 00000KT 7SM CLR 21/21 A2978 RMK AO2 T02130213
KXBP 231155Z AUTO 00000KT 2 1/2SM BR CLR 21/21 A2978 RMK AO2 VIS 1 1/4V5 T02090209 10250 20202
KXBP 231135Z AUTO 00000KT 4SM BR CLR 21/21 A2976 RMK AO2 T02070207
KXBP 231115Z AUTO 00000KT 10SM CLR 21/21 A2975 RMK AO2 T02100210
KXBP 231055Z AUTO 00000KT 10SM CLR 21/21 A2974 RMK AO2 LTG DSNT N T02060206
KXBP 231035Z AUTO 00000KT 10SM CLR 21/21 A2974 RMK AO2 T02100210
KXBP 231015Z AUTO 00000KT 10SM CLR 21/21 A2975 RMK AO2 T02120212
KXBP 230955Z AUTO 00000KT 10SM CLR 22/22 A2974 RMK AO2 T02160216
KXBP 230935Z AUTO 09003KT 10SM CLR 22/22 A2974 RMK AO2 T02160216
KXBP 230915Z AUTO 35003KT 10SM CLR 23/21 A2974 RMK AO2 T02260208
KXBP 230855Z AUTO 14003KT 10SM CLR 23/22 A2973 RMK AO2 T02290223


Page loaded:  20:54 UTC  |   01:54 PM Pacific  |   02:54 PM Mountain  |   03:54 PM Central  |   04:54 PM Eastern

 

ADVISORIES

FORECASTS

FORECASTS

OBSERVATIONS

USER TOOLS

ABOUT US